sensor_id;sensor_type;location;lat;lon;timestamp;P1;durP1;ratioP1;P2;durP2;ratioP2
4186;SDS011;2107;52.306;10.484;2023-10-13T00:01:53;0.00;;;0.00;;
4186;SDS011;2107;52.306;10.484;2023-10-13T00:04:20;0.00;;;0.00;;
4186;SDS011;2107;52.306;10.484;2023-10-13T00:06:50;0.00;;;0.00;;
4186;SDS011;2107;52.306;10.484;2023-10-13T00:09:17;0.00;;;0.00;;
4186;SDS011;2107;52.306;10.484;2023-10-13T00:11:52;0.00;;;0.00;;
4186;SDS011;2107;52.306;10.484;2023-10-13T00:14:20;0.00;;;0.00;;
4186;SDS011;2107;52.306;10.484;2023-10-13T00:16:47;0.00;;;0.00;;
4186;SDS011;2107;52.306;10.484;2023-10-13T00:19:28;0.00;;;0.00;;
4186;SDS011;2107;52.306;10.484;2023-10-13T00:22:02;0.00;;;0.00;;
4186;SDS011;2107;52.306;10.484;2023-10-13T00:24:34;0.00;;;0.00;;
4186;SDS011;2107;52.306;10.484;2023-10-13T00:27:09;0.00;;;0.00;;
4186;SDS011;2107;52.306;10.484;2023-10-13T00:29:52;0.00;;;0.00;;
4186;SDS011;2107;52.306;10.484;2023-10-13T00:32:40;0.00;;;0.00;;
4186;SDS011;2107;52.306;10.484;2023-10-13T00:35:09;0.00;;;0.00;;
4186;SDS011;2107;52.306;10.484;2023-10-13T00:37:39;0.00;;;0.00;;
4186;SDS011;2107;52.306;10.484;2023-10-13T00:40:09;0.00;;;0.00;;
4186;SDS011;2107;52.306;10.484;2023-10-13T00:42:52;0.00;;;0.00;;
4186;SDS011;2107;52.306;10.484;2023-10-13T00:45:20;0.00;;;0.00;;
4186;SDS011;2107;52.306;10.484;2023-10-13T00:47:47;0.00;;;0.00;;
4186;SDS011;2107;52.306;10.484;2023-10-13T00:50:21;0.00;;;0.00;;
4186;SDS011;2107;52.306;10.484;2023-10-13T00:52:49;0.00;;;0.00;;
4186;SDS011;2107;52.306;10.484;2023-10-13T00:55:17;0.00;;;0.00;;
4186;SDS011;2107;52.306;10.484;2023-10-13T00:57:47;0.00;;;0.00;;
4186;SDS011;2107;52.306;10.484;2023-10-13T01:00:20;0.00;;;0.00;;
4186;SDS011;2107;52.306;10.484;2023-10-13T01:02:50;0.00;;;0.00;;
4186;SDS011;2107;52.306;10.484;2023-10-13T01:05:21;0.00;;;0.00;;
4186;SDS011;2107;52.306;10.484;2023-10-13T01:07:48;0.00;;;0.00;;
4186;SDS011;2107;52.306;10.484;2023-10-13T01:10:18;0.00;;;0.00;;
4186;SDS011;2107;52.306;10.484;2023-10-13T01:12:44;0.00;;;0.00;;
4186;SDS011;2107;52.306;10.484;2023-10-13T01:15:12;0.00;;;0.00;;
4186;SDS011;2107;52.306;10.484;2023-10-13T01:17:44;0.00;;;0.00;;
4186;SDS011;2107;52.306;10.484;2023-10-13T01:20:11;0.00;;;0.00;;
4186;SDS011;2107;52.306;10.484;2023-10-13T01:22:43;0.00;;;0.00;;
4186;SDS011;2107;52.306;10.484;2023-10-13T01:25:16;0.00;;;0.00;;
4186;SDS011;2107;52.306;10.484;2023-10-13T01:27:44;0.00;;;0.00;;
4186;SDS011;2107;52.306;10.484;2023-10-13T01:30:14;0.00;;;0.00;;
4186;SDS011;2107;52.306;10.484;2023-10-13T01:32:48;0.00;;;0.00;;
4186;SDS011;2107;52.306;10.484;2023-10-13T01:35:16;0.00;;;0.00;;
4186;SDS011;2107;52.306;10.484;2023-10-13T01:37:44;0.00;;;0.00;;
4186;SDS011;2107;52.306;10.484;2023-10-13T01:40:11;0.00;;;0.00;;
4186;SDS011;2107;52.306;10.484;2023-10-13T01:42:38;0.00;;;0.00;;
4186;SDS011;2107;52.306;10.484;2023-10-13T01:45:06;0.00;;;0.00;;
4186;SDS011;2107;52.306;10.484;2023-10-13T01:47:32;0.00;;;0.00;;
4186;SDS011;2107;52.306;10.484;2023-10-13T01:49:59;0.00;;;0.00;;
4186;SDS011;2107;52.306;10.484;2023-10-13T01:52:38;0.00;;;0.00;;
4186;SDS011;2107;52.306;10.484;2023-10-13T01:55:07;0.00;;;0.00;;
4186;SDS011;2107;52.306;10.484;2023-10-13T01:57:35;0.00;;;0.00;;
4186;SDS011;2107;52.306;10.484;2023-10-13T02:00:04;0.00;;;0.00;;
4186;SDS011;2107;52.306;10.484;2023-10-13T02:02:37;0.00;;;0.00;;
4186;SDS011;2107;52.306;10.484;2023-10-13T02:05:10;0.00;;;0.00;;
4186;SDS011;2107;52.306;10.484;2023-10-13T02:07:37;0.00;;;0.00;;
4186;SDS011;2107;52.306;10.484;2023-10-13T02:10:04;0.00;;;0.00;;
4186;SDS011;2107;52.306;10.484;2023-10-13T02:12:31;0.00;;;0.00;;
4186;SDS011;2107;52.306;10.484;2023-10-13T02:15:09;0.00;;;0.00;;
4186;SDS011;2107;52.306;10.484;2023-10-13T02:17:37;0.00;;;0.00;;
4186;SDS011;2107;52.306;10.484;2023-10-13T02:20:10;0.00;;;0.00;;
4186;SDS011;2107;52.306;10.484;2023-10-13T02:22:39;0.00;;;0.00;;
4186;SDS011;2107;52.306;10.484;2023-10-13T02:25:14;0.00;;;0.00;;
4186;SDS011;2107;52.306;10.484;2023-10-13T02:27:42;0.00;;;0.00;;
4186;SDS011;2107;52.306;10.484;2023-10-13T02:30:14;0.00;;;0.00;;
4186;SDS011;2107;52.306;10.484;2023-10-13T02:32:40;0.00;;;0.00;;
4186;SDS011;2107;52.306;10.484;2023-10-13T02:35:08;0.00;;;0.00;;
4186;SDS011;2107;52.306;10.484;2023-10-13T02:37:40;0.00;;;0.00;;
4186;SDS011;2107;52.306;10.484;2023-10-13T02:40:09;0.00;;;0.00;;
4186;SDS011;2107;52.306;10.484;2023-10-13T02:42:36;0.00;;;0.00;;
4186;SDS011;2107;52.306;10.484;2023-10-13T02:45:04;0.00;;;0.00;;
4186;SDS011;2107;52.306;10.484;2023-10-13T02:47:32;0.00;;;0.00;;
4186;SDS011;2107;52.306;10.484;2023-10-13T02:49:59;0.00;;;0.00;;
4186;SDS011;2107;52.306;10.484;2023-10-13T02:52:26;0.00;;;0.00;;
4186;SDS011;2107;52.306;10.484;2023-10-13T02:54:52;0.00;;;0.00;;
4186;SDS011;2107;52.306;10.484;2023-10-13T02:57:18;0.00;;;0.00;;
4186;SDS011;2107;52.306;10.484;2023-10-13T02:59:48;0.00;;;0.00;;
4186;SDS011;2107;52.306;10.484;2023-10-13T03:02:22;0.00;;;0.00;;
4186;SDS011;2107;52.306;10.484;2023-10-13T03:04:51;0.00;;;0.00;;
4186;SDS011;2107;52.306;10.484;2023-10-13T03:07:24;0.00;;;0.00;;
4186;SDS011;2107;52.306;10.484;2023-10-13T03:09:54;0.00;;;0.00;;
4186;SDS011;2107;52.306;10.484;2023-10-13T03:12:25;0.00;;;0.00;;
4186;SDS011;2107;52.306;10.484;2023-10-13T03:14:51;0.00;;;0.00;;
4186;SDS011;2107;52.306;10.484;2023-10-13T03:17:21;0.00;;;0.00;;
4186;SDS011;2107;52.306;10.484;2023-10-13T03:19:59;0.00;;;0.00;;
4186;SDS011;2107;52.306;10.484;2023-10-13T03:22:26;0.00;;;0.00;;
4186;SDS011;2107;52.306;10.484;2023-10-13T03:24:56;0.00;;;0.00;;
4186;SDS011;2107;52.306;10.484;2023-10-13T03:27:25;0.00;;;0.00;;
4186;SDS011;2107;52.306;10.484;2023-10-13T03:30:05;0.00;;;0.00;;
4186;SDS011;2107;52.306;10.484;2023-10-13T03:32:39;0.00;;;0.00;;
4186;SDS011;2107;52.306;10.484;2023-10-13T03:35:10;0.00;;;0.00;;
4186;SDS011;2107;52.306;10.484;2023-10-13T03:37:48;0.00;;;0.00;;
4186;SDS011;2107;52.306;10.484;2023-10-13T03:40:15;0.00;;;0.00;;
4186;SDS011;2107;52.306;10.484;2023-10-13T03:42:57;0.00;;;0.00;;
4186;SDS011;2107;52.306;10.484;2023-10-13T03:45:29;0.00;;;0.00;;
4186;SDS011;2107;52.306;10.484;2023-10-13T03:48:03;0.00;;;0.00;;
4186;SDS011;2107;52.306;10.484;2023-10-13T03:50:35;0.00;;;0.00;;
4186;SDS011;2107;52.306;10.484;2023-10-13T03:53:03;0.00;;;0.00;;
4186;SDS011;2107;52.306;10.484;2023-10-13T03:55:33;0.00;;;0.00;;
4186;SDS011;2107;52.306;10.484;2023-10-13T03:58:00;0.00;;;0.00;;
4186;SDS011;2107;52.306;10.484;2023-10-13T04:00:29;0.00;;;0.00;;
4186;SDS011;2107;52.306;10.484;2023-10-13T04:02:57;0.00;;;0.00;;
4186;SDS011;2107;52.306;10.484;2023-10-13T04:05:35;0.00;;;0.00;;
4186;SDS011;2107;52.306;10.484;2023-10-13T04:08:09;0.00;;;0.00;;
4186;SDS011;2107;52.306;10.484;2023-10-13T04:10:54;0.00;;;0.00;;
4186;SDS011;2107;52.306;10.484;2023-10-13T04:13:36;0.00;;;0.00;;
4186;SDS011;2107;52.306;10.484;2023-10-13T04:16:21;0.00;;;0.00;;
4186;SDS011;2107;52.306;10.484;2023-10-13T04:19:00;0.00;;;0.00;;
4186;SDS011;2107;52.306;10.484;2023-10-13T04:21:46;0.00;;;0.00;;
4186;SDS011;2107;52.306;10.484;2023-10-13T04:24:25;0.00;;;0.00;;
4186;SDS011;2107;52.306;10.484;2023-10-13T04:27:10;0.00;;;0.00;;
4186;SDS011;2107;52.306;10.484;2023-10-13T04:30:05;0.00;;;0.00;;
4186;SDS011;2107;52.306;10.484;2023-10-13T04:32:49;0.00;;;0.00;;
4186;SDS011;2107;52.306;10.484;2023-10-13T04:35:31;0.00;;;0.00;;
4186;SDS011;2107;52.306;10.484;2023-10-13T04:38:03;0.00;;;0.00;;
4186;SDS011;2107;52.306;10.484;2023-10-13T04:40:43;0.00;;;0.00;;
4186;SDS011;2107;52.306;10.484;2023-10-13T04:43:24;0.00;;;0.00;;
4186;SDS011;2107;52.306;10.484;2023-10-13T04:46:19;0.00;;;0.00;;
4186;SDS011;2107;52.306;10.484;2023-10-13T04:49:00;0.00;;;0.00;;
4186;SDS011;2107;52.306;10.484;2023-10-13T04:51:35;0.00;;;0.00;;
4186;SDS011;2107;52.306;10.484;2023-10-13T04:54:18;0.00;;;0.00;;
4186;SDS011;2107;52.306;10.484;2023-10-13T04:56:58;0.00;;;0.00;;
4186;SDS011;2107;52.306;10.484;2023-10-13T04:59:42;0.00;;;0.00;;
4186;SDS011;2107;52.306;10.484;2023-10-13T05:02:29;0.00;;;0.00;;
4186;SDS011;2107;52.306;10.484;2023-10-13T05:05:20;0.00;;;0.00;;
4186;SDS011;2107;52.306;10.484;2023-10-13T05:08:05;0.00;;;0.00;;
4186;SDS011;2107;52.306;10.484;2023-10-13T05:10:51;0.00;;;0.00;;
4186;SDS011;2107;52.306;10.484;2023-10-13T05:13:35;0.00;;;0.00;;
4186;SDS011;2107;52.306;10.484;2023-10-13T05:16:19;0.00;;;0.00;;
4186;SDS011;2107;52.306;10.484;2023-10-13T05:19:04;0.00;;;0.00;;
4186;SDS011;2107;52.306;10.484;2023-10-13T05:21:48;0.00;;;0.00;;
4186;SDS011;2107;52.306;10.484;2023-10-13T05:24:47;0.00;;;0.00;;
4186;SDS011;2107;52.306;10.484;2023-10-13T05:27:32;0.00;;;0.00;;
4186;SDS011;2107;52.306;10.484;2023-10-13T05:30:17;0.00;;;0.00;;
4186;SDS011;2107;52.306;10.484;2023-10-13T05:33:01;0.00;;;0.00;;
4186;SDS011;2107;52.306;10.484;2023-10-13T05:35:46;0.00;;;0.00;;
4186;SDS011;2107;52.306;10.484;2023-10-13T05:38:30;0.00;;;0.00;;
4186;SDS011;2107;52.306;10.484;2023-10-13T05:41:28;0.00;;;0.00;;
4186;SDS011;2107;52.306;10.484;2023-10-13T05:44:14;0.00;;;0.00;;
4186;SDS011;2107;52.306;10.484;2023-10-13T05:47:02;0.00;;;0.00;;
4186;SDS011;2107;52.306;10.484;2023-10-13T05:49:47;0.00;;;0.00;;
4186;SDS011;2107;52.306;10.484;2023-10-13T05:52:18;0.00;;;0.00;;
4186;SDS011;2107;52.306;10.484;2023-10-13T05:54:45;0.00;;;0.00;;
4186;SDS011;2107;52.306;10.484;2023-10-13T05:57:30;0.00;;;0.00;;
4186;SDS011;2107;52.306;10.484;2023-10-13T06:00:17;0.00;;;0.00;;
4186;SDS011;2107;52.306;10.484;2023-10-13T06:03:02;0.00;;;0.00;;
4186;SDS011;2107;52.306;10.484;2023-10-13T06:05:47;0.00;;;0.00;;
4186;SDS011;2107;52.306;10.484;2023-10-13T06:08:32;0.00;;;0.00;;
4186;SDS011;2107;52.306;10.484;2023-10-13T06:11:16;0.00;;;0.00;;
4186;SDS011;2107;52.306;10.484;2023-10-13T06:14:00;0.00;;;0.00;;
4186;SDS011;2107;52.306;10.484;2023-10-13T06:16:46;0.00;;;0.00;;
4186;SDS011;2107;52.306;10.484;2023-10-13T06:19:30;0.00;;;0.00;;
4186;SDS011;2107;52.306;10.484;2023-10-13T06:22:15;0.00;;;0.00;;
4186;SDS011;2107;52.306;10.484;2023-10-13T06:24:59;0.00;;;0.00;;
4186;SDS011;2107;52.306;10.484;2023-10-13T06:27:43;0.00;;;0.00;;
4186;SDS011;2107;52.306;10.484;2023-10-13T06:30:27;0.00;;;0.00;;
4186;SDS011;2107;52.306;10.484;2023-10-13T06:32:56;0.00;;;0.00;;
4186;SDS011;2107;52.306;10.484;2023-10-13T06:35:22;0.00;;;0.00;;
4186;SDS011;2107;52.306;10.484;2023-10-13T06:37:49;0.00;;;0.00;;
4186;SDS011;2107;52.306;10.484;2023-10-13T06:40:17;0.00;;;0.00;;
4186;SDS011;2107;52.306;10.484;2023-10-13T06:42:58;0.00;;;0.00;;
4186;SDS011;2107;52.306;10.484;2023-10-13T06:45:37;0.00;;;0.00;;
4186;SDS011;2107;52.306;10.484;2023-10-13T06:48:06;0.00;;;0.00;;
4186;SDS011;2107;52.306;10.484;2023-10-13T06:50:36;0.00;;;0.00;;
4186;SDS011;2107;52.306;10.484;2023-10-13T06:53:06;0.00;;;0.00;;
4186;SDS011;2107;52.306;10.484;2023-10-13T06:55:37;0.00;;;0.00;;
4186;SDS011;2107;52.306;10.484;2023-10-13T06:58:05;0.00;;;0.00;;
4186;SDS011;2107;52.306;10.484;2023-10-13T07:00:32;0.00;;;0.00;;
4186;SDS011;2107;52.306;10.484;2023-10-13T07:02:59;0.00;;;0.00;;
4186;SDS011;2107;52.306;10.484;2023-10-13T07:05:35;0.00;;;0.00;;
4186;SDS011;2107;52.306;10.484;2023-10-13T07:08:04;0.00;;;0.00;;
4186;SDS011;2107;52.306;10.484;2023-10-13T07:10:31;0.00;;;0.00;;
4186;SDS011;2107;52.306;10.484;2023-10-13T07:13:09;0.00;;;0.00;;
4186;SDS011;2107;52.306;10.484;2023-10-13T07:15:38;0.00;;;0.00;;
4186;SDS011;2107;52.306;10.484;2023-10-13T07:18:10;0.00;;;0.00;;
4186;SDS011;2107;52.306;10.484;2023-10-13T07:20:40;0.00;;;0.00;;
4186;SDS011;2107;52.306;10.484;2023-10-13T07:23:10;0.00;;;0.00;;
4186;SDS011;2107;52.306;10.484;2023-10-13T07:25:43;0.00;;;0.00;;
4186;SDS011;2107;52.306;10.484;2023-10-13T07:28:19;0.00;;;0.00;;
4186;SDS011;2107;52.306;10.484;2023-10-13T07:30:46;0.00;;;0.00;;
4186;SDS011;2107;52.306;10.484;2023-10-13T07:33:35;0.00;;;0.00;;
4186;SDS011;2107;52.306;10.484;2023-10-13T07:36:04;0.00;;;0.00;;
4186;SDS011;2107;52.306;10.484;2023-10-13T07:38:40;0.00;;;0.00;;
4186;SDS011;2107;52.306;10.484;2023-10-13T07:41:13;0.00;;;0.00;;
4186;SDS011;2107;52.306;10.484;2023-10-13T07:43:42;0.00;;;0.00;;
4186;SDS011;2107;52.306;10.484;2023-10-13T07:46:10;0.00;;;0.00;;
4186;SDS011;2107;52.306;10.484;2023-10-13T07:48:38;0.00;;;0.00;;
4186;SDS011;2107;52.306;10.484;2023-10-13T07:51:08;0.00;;;0.00;;
4186;SDS011;2107;52.306;10.484;2023-10-13T07:53:37;0.00;;;0.00;;
4186;SDS011;2107;52.306;10.484;2023-10-13T07:56:07;0.00;;;0.00;;
4186;SDS011;2107;52.306;10.484;2023-10-13T07:58:36;0.00;;;0.00;;
4186;SDS011;2107;52.306;10.484;2023-10-13T08:01:13;0.00;;;0.00;;
4186;SDS011;2107;52.306;10.484;2023-10-13T08:03:43;0.00;;;0.00;;
4186;SDS011;2107;52.306;10.484;2023-10-13T08:06:13;0.00;;;0.00;;
4186;SDS011;2107;52.306;10.484;2023-10-13T08:08:51;0.00;;;0.00;;
4186;SDS011;2107;52.306;10.484;2023-10-13T08:11:32;0.00;;;0.00;;
4186;SDS011;2107;52.306;10.484;2023-10-13T08:14:01;0.00;;;0.00;;
4186;SDS011;2107;52.306;10.484;2023-10-13T08:16:37;0.00;;;0.00;;
4186;SDS011;2107;52.306;10.484;2023-10-13T08:19:18;0.00;;;0.00;;
4186;SDS011;2107;52.306;10.484;2023-10-13T08:21:47;0.00;;;0.00;;
4186;SDS011;2107;52.306;10.484;2023-10-13T08:24:19;0.00;;;0.00;;
4186;SDS011;2107;52.306;10.484;2023-10-13T08:26:53;0.00;;;0.00;;
4186;SDS011;2107;52.306;10.484;2023-10-13T08:29:23;0.00;;;0.00;;
4186;SDS011;2107;52.306;10.484;2023-10-13T08:32:07;0.00;;;0.00;;
4186;SDS011;2107;52.306;10.484;2023-10-13T08:34:46;0.00;;;0.00;;
4186;SDS011;2107;52.306;10.484;2023-10-13T08:37:35;0.00;;;0.00;;
4186;SDS011;2107;52.306;10.484;2023-10-13T08:40:24;0.00;;;0.00;;
4186;SDS011;2107;52.306;10.484;2023-10-13T08:43:10;0.00;;;0.00;;
4186;SDS011;2107;52.306;10.484;2023-10-13T08:45:38;0.00;;;0.00;;
4186;SDS011;2107;52.306;10.484;2023-10-13T08:48:24;0.00;;;0.00;;
4186;SDS011;2107;52.306;10.484;2023-10-13T08:50:58;0.00;;;0.00;;
4186;SDS011;2107;52.306;10.484;2023-10-13T08:53:37;0.00;;;0.00;;
4186;SDS011;2107;52.306;10.484;2023-10-13T08:56:10;0.00;;;0.00;;
4186;SDS011;2107;52.306;10.484;2023-10-13T08:58:43;0.00;;;0.00;;
4186;SDS011;2107;52.306;10.484;2023-10-13T09:01:31;0.00;;;0.00;;
4186;SDS011;2107;52.306;10.484;2023-10-13T09:04:02;0.00;;;0.00;;
4186;SDS011;2107;52.306;10.484;2023-10-13T09:06:46;0.00;;;0.00;;
4186;SDS011;2107;52.306;10.484;2023-10-13T09:09:27;0.00;;;0.00;;
4186;SDS011;2107;52.306;10.484;2023-10-13T09:11:59;0.00;;;0.00;;
4186;SDS011;2107;52.306;10.484;2023-10-13T09:14:34;0.00;;;0.00;;
4186;SDS011;2107;52.306;10.484;2023-10-13T09:17:04;0.00;;;0.00;;
4186;SDS011;2107;52.306;10.484;2023-10-13T09:19:59;0.00;;;0.00;;
4186;SDS011;2107;52.306;10.484;2023-10-13T09:22:49;0.00;;;0.00;;
4186;SDS011;2107;52.306;10.484;2023-10-13T09:25:23;0.00;;;0.00;;
4186;SDS011;2107;52.306;10.484;2023-10-13T09:27:50;0.00;;;0.00;;
4186;SDS011;2107;52.306;10.484;2023-10-13T09:30:18;0.00;;;0.00;;
4186;SDS011;2107;52.306;10.484;2023-10-13T09:32:46;0.00;;;0.00;;
4186;SDS011;2107;52.306;10.484;2023-10-13T09:35:16;0.00;;;0.00;;
4186;SDS011;2107;52.306;10.484;2023-10-13T09:37:44;0.00;;;0.00;;
4186;SDS011;2107;52.306;10.484;2023-10-13T09:40:12;0.00;;;0.00;;
4186;SDS011;2107;52.306;10.484;2023-10-13T09:42:53;0.00;;;0.00;;
4186;SDS011;2107;52.306;10.484;2023-10-13T09:45:23;0.00;;;0.00;;
4186;SDS011;2107;52.306;10.484;2023-10-13T09:47:55;0.00;;;0.00;;
4186;SDS011;2107;52.306;10.484;2023-10-13T09:50:31;0.00;;;0.00;;
4186;SDS011;2107;52.306;10.484;2023-10-13T09:53:02;0.00;;;0.00;;
4186;SDS011;2107;52.306;10.484;2023-10-13T09:55:35;0.00;;;0.00;;
4186;SDS011;2107;52.306;10.484;2023-10-13T09:58:11;0.00;;;0.00;;
4186;SDS011;2107;52.306;10.484;2023-10-13T10:00:42;0.00;;;0.00;;
4186;SDS011;2107;52.306;10.484;2023-10-13T10:03:13;0.00;;;0.00;;
4186;SDS011;2107;52.306;10.484;2023-10-13T10:05:55;0.00;;;0.00;;
4186;SDS011;2107;52.306;10.484;2023-10-13T10:08:28;0.00;;;0.00;;
4186;SDS011;2107;52.306;10.484;2023-10-13T10:14:03;0.00;;;0.00;;
4186;SDS011;2107;52.306;10.484;2023-10-13T10:16:39;0.00;;;0.00;;
4186;SDS011;2107;52.306;10.484;2023-10-13T10:19:14;0.00;;;0.00;;
4186;SDS011;2107;52.306;10.484;2023-10-13T10:21:41;0.00;;;0.00;;
4186;SDS011;2107;52.306;10.484;2023-10-13T10:24:15;0.00;;;0.00;;
4186;SDS011;2107;52.306;10.484;2023-10-13T10:26:54;0.00;;;0.00;;
4186;SDS011;2107;52.306;10.484;2023-10-13T10:29:22;0.00;;;0.00;;
4186;SDS011;2107;52.306;10.484;2023-10-13T10:31:49;0.00;;;0.00;;
4186;SDS011;2107;52.306;10.484;2023-10-13T10:34:16;0.00;;;0.00;;
4186;SDS011;2107;52.306;10.484;2023-10-13T10:36:46;0.00;;;0.00;;
4186;SDS011;2107;52.306;10.484;2023-10-13T10:39:13;0.00;;;0.00;;
4186;SDS011;2107;52.306;10.484;2023-10-13T10:41:43;0.00;;;0.00;;
4186;SDS011;2107;52.306;10.484;2023-10-13T10:44:17;0.00;;;0.00;;
4186;SDS011;2107;52.306;10.484;2023-10-13T10:47:09;0.03;;;0.03;;
4186;SDS011;2107;52.306;10.484;2023-10-13T10:49:37;0.00;;;0.00;;
4186;SDS011;2107;52.306;10.484;2023-10-13T10:52:05;0.00;;;0.00;;
4186;SDS011;2107;52.306;10.484;2023-10-13T10:54:43;0.00;;;0.00;;
4186;SDS011;2107;52.306;10.484;2023-10-13T10:57:16;0.10;;;0.10;;
4186;SDS011;2107;52.306;10.484;2023-10-13T10:59:43;0.10;;;0.10;;
4186;SDS011;2107;52.306;10.484;2023-10-13T11:02:12;0.10;;;0.10;;
4186;SDS011;2107;52.306;10.484;2023-10-13T11:04:52;0.10;;;0.10;;
4186;SDS011;2107;52.306;10.484;2023-10-13T11:07:21;0.10;;;0.10;;
4186;SDS011;2107;52.306;10.484;2023-10-13T11:09:48;0.10;;;0.10;;
4186;SDS011;2107;52.306;10.484;2023-10-13T11:12:18;0.10;;;0.10;;
4186;SDS011;2107;52.306;10.484;2023-10-13T11:15:00;0.10;;;0.10;;
4186;SDS011;2107;52.306;10.484;2023-10-13T11:17:31;0.10;;;0.10;;
4186;SDS011;2107;52.306;10.484;2023-10-13T11:20:16;0.10;;;0.10;;
4186;SDS011;2107;52.306;10.484;2023-10-13T11:22:50;0.20;;;0.20;;
4186;SDS011;2107;52.306;10.484;2023-10-13T11:25:22;0.10;;;0.10;;
4186;SDS011;2107;52.306;10.484;2023-10-13T11:27:54;0.10;;;0.10;;
4186;SDS011;2107;52.306;10.484;2023-10-13T11:30:21;0.10;;;0.10;;
4186;SDS011;2107;52.306;10.484;2023-10-13T11:33:00;0.20;;;0.20;;
4186;SDS011;2107;52.306;10.484;2023-10-13T11:35:30;0.10;;;0.10;;
4186;SDS011;2107;52.306;10.484;2023-10-13T11:38:11;0.10;;;0.10;;
4186;SDS011;2107;52.306;10.484;2023-10-13T11:40:40;0.20;;;0.20;;
4186;SDS011;2107;52.306;10.484;2023-10-13T11:43:31;0.20;;;0.20;;
4186;SDS011;2107;52.306;10.484;2023-10-13T11:46:05;0.20;;;0.20;;
4186;SDS011;2107;52.306;10.484;2023-10-13T11:48:42;0.30;;;0.30;;
4186;SDS011;2107;52.306;10.484;2023-10-13T11:51:09;0.20;;;0.20;;
4186;SDS011;2107;52.306;10.484;2023-10-13T11:53:42;0.30;;;0.30;;
4186;SDS011;2107;52.306;10.484;2023-10-13T11:56:09;0.20;;;0.20;;
4186;SDS011;2107;52.306;10.484;2023-10-13T11:58:37;0.20;;;0.20;;
4186;SDS011;2107;52.306;10.484;2023-10-13T12:01:04;0.30;;;0.30;;
4186;SDS011;2107;52.306;10.484;2023-10-13T12:03:47;0.30;;;0.30;;
4186;SDS011;2107;52.306;10.484;2023-10-13T12:06:33;0.30;;;0.30;;
4186;SDS011;2107;52.306;10.484;2023-10-13T12:09:12;0.30;;;0.30;;
4186;SDS011;2107;52.306;10.484;2023-10-13T12:11:57;0.30;;;0.30;;
4186;SDS011;2107;52.306;10.484;2023-10-13T12:14:27;0.20;;;0.20;;
4186;SDS011;2107;52.306;10.484;2023-10-13T12:16:57;0.30;;;0.30;;
4186;SDS011;2107;52.306;10.484;2023-10-13T12:19:30;0.30;;;0.30;;
4186;SDS011;2107;52.306;10.484;2023-10-13T12:22:00;0.30;;;0.30;;
4186;SDS011;2107;52.306;10.484;2023-10-13T12:24:30;0.30;;;0.30;;
4186;SDS011;2107;52.306;10.484;2023-10-13T12:27:05;0.20;;;0.20;;
4186;SDS011;2107;52.306;10.484;2023-10-13T12:29:44;0.30;;;0.30;;
4186;SDS011;2107;52.306;10.484;2023-10-13T12:32:12;0.40;;;0.40;;
4186;SDS011;2107;52.306;10.484;2023-10-13T12:34:41;0.40;;;0.40;;
4186;SDS011;2107;52.306;10.484;2023-10-13T12:37:26;0.40;;;0.40;;
4186;SDS011;2107;52.306;10.484;2023-10-13T12:40:15;0.30;;;0.30;;
4186;SDS011;2107;52.306;10.484;2023-10-13T12:43:00;0.50;;;0.50;;
4186;SDS011;2107;52.306;10.484;2023-10-13T12:45:45;0.40;;;0.40;;
4186;SDS011;2107;52.306;10.484;2023-10-13T12:48:31;0.40;;;0.40;;
4186;SDS011;2107;52.306;10.484;2023-10-13T12:51:17;0.30;;;0.30;;
4186;SDS011;2107;52.306;10.484;2023-10-13T12:54:05;0.30;;;0.30;;
4186;SDS011;2107;52.306;10.484;2023-10-13T12:56:39;0.30;;;0.30;;
4186;SDS011;2107;52.306;10.484;2023-10-13T12:59:07;0.50;;;0.50;;
4186;SDS011;2107;52.306;10.484;2023-10-13T13:01:38;0.30;;;0.30;;
4186;SDS011;2107;52.306;10.484;2023-10-13T13:04:07;0.30;;;0.30;;
4186;SDS011;2107;52.306;10.484;2023-10-13T13:06:39;0.40;;;0.40;;
4186;SDS011;2107;52.306;10.484;2023-10-13T13:09:06;0.30;;;0.30;;
4186;SDS011;2107;52.306;10.484;2023-10-13T13:11:34;0.30;;;0.30;;
4186;SDS011;2107;52.306;10.484;2023-10-13T13:14:05;0.30;;;0.30;;
4186;SDS011;2107;52.306;10.484;2023-10-13T13:16:34;0.40;;;0.40;;
4186;SDS011;2107;52.306;10.484;2023-10-13T13:19:03;0.30;;;0.30;;
4186;SDS011;2107;52.306;10.484;2023-10-13T13:21:36;0.40;;;0.40;;
4186;SDS011;2107;52.306;10.484;2023-10-13T13:24:06;0.50;;;0.50;;
4186;SDS011;2107;52.306;10.484;2023-10-13T13:26:36;0.50;;;0.50;;
4186;SDS011;2107;52.306;10.484;2023-10-13T13:29:05;0.60;;;0.60;;
4186;SDS011;2107;52.306;10.484;2023-10-13T13:31:34;0.30;;;0.30;;
4186;SDS011;2107;52.306;10.484;2023-10-13T13:34:06;0.60;;;0.60;;
4186;SDS011;2107;52.306;10.484;2023-10-13T13:36:35;0.20;;;0.20;;
4186;SDS011;2107;52.306;10.484;2023-10-13T13:39:02;0.30;;;0.30;;
4186;SDS011;2107;52.306;10.484;2023-10-13T13:41:32;0.30;;;0.30;;
4186;SDS011;2107;52.306;10.484;2023-10-13T13:43:59;0.70;;;0.70;;
4186;SDS011;2107;52.306;10.484;2023-10-13T13:46:38;0.70;;;0.70;;
4186;SDS011;2107;52.306;10.484;2023-10-13T13:49:07;0.40;;;0.40;;
4186;SDS011;2107;52.306;10.484;2023-10-13T13:51:43;0.50;;;0.50;;
4186;SDS011;2107;52.306;10.484;2023-10-13T13:54:17;0.50;;;0.50;;
4186;SDS011;2107;52.306;10.484;2023-10-13T13:56:47;0.50;;;0.50;;
4186;SDS011;2107;52.306;10.484;2023-10-13T13:59:14;0.60;;;0.60;;
4186;SDS011;2107;52.306;10.484;2023-10-13T14:01:45;0.70;;;0.70;;
4186;SDS011;2107;52.306;10.484;2023-10-13T14:04:12;0.50;;;0.50;;
4186;SDS011;2107;52.306;10.484;2023-10-13T14:06:42;0.70;;;0.70;;
4186;SDS011;2107;52.306;10.484;2023-10-13T14:09:10;1.00;;;1.00;;
4186;SDS011;2107;52.306;10.484;2023-10-13T14:11:41;0.50;;;0.50;;
4186;SDS011;2107;52.306;10.484;2023-10-13T14:14:26;0.70;;;0.70;;
4186;SDS011;2107;52.306;10.484;2023-10-13T14:16:58;0.60;;;0.60;;
4186;SDS011;2107;52.306;10.484;2023-10-13T14:19:34;0.80;;;0.80;;
4186;SDS011;2107;52.306;10.484;2023-10-13T14:22:05;0.70;;;0.70;;
4186;SDS011;2107;52.306;10.484;2023-10-13T14:24:33;0.70;;;0.70;;
4186;SDS011;2107;52.306;10.484;2023-10-13T14:27:08;0.60;;;0.60;;
4186;SDS011;2107;52.306;10.484;2023-10-13T14:29:39;0.50;;;0.50;;
4186;SDS011;2107;52.306;10.484;2023-10-13T14:32:07;0.50;;;0.50;;
4186;SDS011;2107;52.306;10.484;2023-10-13T14:34:37;0.40;;;0.40;;
4186;SDS011;2107;52.306;10.484;2023-10-13T14:37:05;0.40;;;0.40;;
4186;SDS011;2107;52.306;10.484;2023-10-13T14:39:32;0.30;;;0.30;;
4186;SDS011;2107;52.306;10.484;2023-10-13T14:42:01;0.33;;;0.33;;
4186;SDS011;2107;52.306;10.484;2023-10-13T14:44:30;0.50;;;0.50;;
4186;SDS011;2107;52.306;10.484;2023-10-13T14:46:59;0.40;;;0.40;;
4186;SDS011;2107;52.306;10.484;2023-10-13T14:49:35;0.40;;;0.40;;
4186;SDS011;2107;52.306;10.484;2023-10-13T14:52:02;0.40;;;0.40;;
4186;SDS011;2107;52.306;10.484;2023-10-13T14:54:30;0.50;;;0.50;;
4186;SDS011;2107;52.306;10.484;2023-10-13T14:57:00;0.50;;;0.50;;
4186;SDS011;2107;52.306;10.484;2023-10-13T14:59:28;0.40;;;0.40;;
4186;SDS011;2107;52.306;10.484;2023-10-13T15:02:00;0.40;;;0.40;;
4186;SDS011;2107;52.306;10.484;2023-10-13T15:04:27;0.40;;;0.40;;
4186;SDS011;2107;52.306;10.484;2023-10-13T15:06:57;0.60;;;0.60;;
4186;SDS011;2107;52.306;10.484;2023-10-13T15:09:26;0.50;;;0.50;;
4186;SDS011;2107;52.306;10.484;2023-10-13T15:11:54;0.40;;;0.40;;
4186;SDS011;2107;52.306;10.484;2023-10-13T15:14:21;0.30;;;0.30;;
4186;SDS011;2107;52.306;10.484;2023-10-13T15:16:49;0.40;;;0.40;;
4186;SDS011;2107;52.306;10.484;2023-10-13T15:19:18;0.57;;;0.57;;
4186;SDS011;2107;52.306;10.484;2023-10-13T15:21:46;0.30;;;0.30;;
4186;SDS011;2107;52.306;10.484;2023-10-13T15:24:18;0.30;;;0.30;;
4186;SDS011;2107;52.306;10.484;2023-10-13T15:26:46;0.30;;;0.30;;
4186;SDS011;2107;52.306;10.484;2023-10-13T15:29:14;0.30;;;0.30;;
4186;SDS011;2107;52.306;10.484;2023-10-13T15:31:42;0.40;;;0.40;;
4186;SDS011;2107;52.306;10.484;2023-10-13T15:34:20;0.40;;;0.40;;
4186;SDS011;2107;52.306;10.484;2023-10-13T15:36:48;0.50;;;0.50;;
4186;SDS011;2107;52.306;10.484;2023-10-13T15:39:17;0.40;;;0.40;;
4186;SDS011;2107;52.306;10.484;2023-10-13T15:41:49;0.30;;;0.30;;
4186;SDS011;2107;52.306;10.484;2023-10-13T15:44:18;0.40;;;0.40;;